首页
METAR-TAF:

METAR-TAF

机场 :

巴格達國際機場

巴格达, 伊拉克

纬度: 33-15-45N, 经度: 44-14-04E, 海拔: 35米

当前天气观测

该预报发布于13分钟前的07:00 UTC
风速4节,风向多变
温度 33°C
湿度 39%
气压 1010 hPa
能見度: 9000
少量云层高于3000英尺

METAR: ORBI 200700Z VRB04KT 9000 FEW030 33/17 Q1010 NOSIG

时间: 10:13 (07:13 UTC)

预报

该预报发布于3小时和13分钟前的04:00 UTC
预报有效从20日的 06点(UTC)到 21日的 06点(UTC)
风速8节,风向北转西北
能见度10公里或以上
散云层高于3000英尺
散云层高于8000英尺
成为
从 20日的 08点(UTC)到 20日的 10点(UTC)
能见度10公里或以上
1500米以下无云,无积雨云

TAF: ORBI 200400Z 2006/2106 34008KT 9999 SCT030 SCT080 BECMG 2008/2010 CAVOK

超过4000个机场的气象观测和天气预报(METAR&TAF报告)。

可查询的气象台以黄色和红色小点在地图上表示。

将鼠标移到小点上方,可查看气象台名称。

然后点击查看天气观测和预报。

如需切换地图:点击带黑十字的绿色按钮放大地图;点击带横线的绿色按钮缩小地图;或者点击绿色箭头查看邻近地区的地图。


METAR-TAF: